sensor_id;sensor_type;location;lat;lon;timestamp;P1;durP1;ratioP1;P2;durP2;ratioP2
14939;SDS011;11825;51.898;8.202;2023-03-13T00:01:45;19.63;;;4.73;;
14939;SDS011;11825;51.898;8.202;2023-03-13T00:07:04;15.27;;;4.33;;
14939;SDS011;11825;51.898;8.202;2023-03-13T00:12:17;21.73;;;4.40;;
14939;SDS011;11825;51.898;8.202;2023-03-13T00:17:26;9.17;;;4.00;;
14939;SDS011;11825;51.898;8.202;2023-03-13T00:22:37;9.73;;;3.83;;
14939;SDS011;11825;51.898;8.202;2023-03-13T00:27:50;13.57;;;4.77;;
14939;SDS011;11825;51.898;8.202;2023-03-13T00:32:56;12.53;;;4.23;;
14939;SDS011;11825;51.898;8.202;2023-03-13T00:38:28;17.47;;;4.60;;
14939;SDS011;11825;51.898;8.202;2023-03-13T00:43:49;16.60;;;4.07;;
14939;SDS011;11825;51.898;8.202;2023-03-13T00:49:11;11.27;;;3.37;;
14939;SDS011;11825;51.898;8.202;2023-03-13T00:59:47;16.57;;;4.63;;
14939;SDS011;11825;51.898;8.202;2023-03-13T01:04:52;13.40;;;3.53;;
14939;SDS011;11825;51.898;8.202;2023-03-13T01:10:02;13.77;;;3.83;;
14939;SDS011;11825;51.898;8.202;2023-03-13T01:15:23;9.10;;;3.17;;
14939;SDS011;11825;51.898;8.202;2023-03-13T01:20:36;13.33;;;4.20;;
14939;SDS011;11825;51.898;8.202;2023-03-13T01:25:47;18.47;;;4.50;;
14939;SDS011;11825;51.898;8.202;2023-03-13T01:31:01;13.57;;;3.97;;
14939;SDS011;11825;51.898;8.202;2023-03-13T01:36:26;14.43;;;3.73;;
14939;SDS011;11825;51.898;8.202;2023-03-13T01:41:40;16.73;;;4.53;;
14939;SDS011;11825;51.898;8.202;2023-03-13T01:46:52;13.73;;;5.20;;
14939;SDS011;11825;51.898;8.202;2023-03-13T01:52:08;14.43;;;4.30;;
14939;SDS011;11825;51.898;8.202;2023-03-13T01:57:29;13.73;;;4.13;;
14939;SDS011;11825;51.898;8.202;2023-03-13T02:02:44;11.67;;;3.93;;
14939;SDS011;11825;51.898;8.202;2023-03-13T02:08:17;9.70;;;3.40;;
14939;SDS011;11825;51.898;8.202;2023-03-13T02:13:27;21.33;;;4.70;;
14939;SDS011;11825;51.898;8.202;2023-03-13T02:18:32;14.80;;;3.60;;
14939;SDS011;11825;51.898;8.202;2023-03-13T02:23:40;10.50;;;4.17;;
14939;SDS011;11825;51.898;8.202;2023-03-13T02:29:12;15.47;;;3.67;;
14939;SDS011;11825;51.898;8.202;2023-03-13T02:34:21;16.70;;;4.30;;
14939;SDS011;11825;51.898;8.202;2023-03-13T02:45:08;13.67;;;4.07;;
14939;SDS011;11825;51.898;8.202;2023-03-13T02:50:22;15.27;;;4.07;;
14939;SDS011;11825;51.898;8.202;2023-03-13T02:55:35;16.53;;;4.23;;
14939;SDS011;11825;51.898;8.202;2023-03-13T03:00:50;17.77;;;4.00;;
14939;SDS011;11825;51.898;8.202;2023-03-13T03:05:55;15.27;;;4.17;;
14939;SDS011;11825;51.898;8.202;2023-03-13T03:11:21;12.83;;;4.60;;
14939;SDS011;11825;51.898;8.202;2023-03-13T03:16:30;22.63;;;4.03;;
14939;SDS011;11825;51.898;8.202;2023-03-13T03:21:38;13.80;;;3.97;;
14939;SDS011;11825;51.898;8.202;2023-03-13T03:26:40;10.27;;;3.40;;
14939;SDS011;11825;51.898;8.202;2023-03-13T03:31:45;9.90;;;3.53;;
14939;SDS011;11825;51.898;8.202;2023-03-13T03:37:29;11.87;;;5.37;;
14939;SDS011;11825;51.898;8.202;2023-03-13T03:42:40;13.20;;;3.63;;
14939;SDS011;11825;51.898;8.202;2023-03-13T03:47:47;13.00;;;4.63;;
14939;SDS011;11825;51.898;8.202;2023-03-13T03:53:01;7.97;;;3.00;;
14939;SDS011;11825;51.898;8.202;2023-03-13T03:58:09;12.37;;;2.90;;
14939;SDS011;11825;51.898;8.202;2023-03-13T04:09:32;6.43;;;2.10;;
14939;SDS011;11825;51.898;8.202;2023-03-13T04:14:36;10.13;;;2.90;;
14939;SDS011;11825;51.898;8.202;2023-03-13T04:19:52;8.37;;;2.80;;
14939;SDS011;11825;51.898;8.202;2023-03-13T04:25:02;5.97;;;2.37;;
14939;SDS011;11825;51.898;8.202;2023-03-13T04:30:06;4.93;;;1.67;;
14939;SDS011;11825;51.898;8.202;2023-03-13T04:35:18;4.83;;;1.80;;
14939;SDS011;11825;51.898;8.202;2023-03-13T04:40:36;4.60;;;1.90;;
14939;SDS011;11825;51.898;8.202;2023-03-13T04:45:45;3.03;;;1.50;;
14939;SDS011;11825;51.898;8.202;2023-03-13T04:50:50;4.33;;;1.87;;
14939;SDS011;11825;51.898;8.202;2023-03-13T04:55:56;3.93;;;1.70;;
14939;SDS011;11825;51.898;8.202;2023-03-13T05:01:07;3.87;;;1.63;;
14939;SDS011;11825;51.898;8.202;2023-03-13T05:06:23;4.67;;;1.40;;
14939;SDS011;11825;51.898;8.202;2023-03-13T05:11:35;4.67;;;2.10;;
14939;SDS011;11825;51.898;8.202;2023-03-13T05:16:41;9.10;;;1.67;;
14939;SDS011;11825;51.898;8.202;2023-03-13T05:21:54;4.60;;;1.77;;
14939;SDS011;11825;51.898;8.202;2023-03-13T05:27:07;4.00;;;1.37;;
14939;SDS011;11825;51.898;8.202;2023-03-13T05:32:16;4.23;;;1.50;;
14939;SDS011;11825;51.898;8.202;2023-03-13T05:37:25;2.17;;;1.93;;
14939;SDS011;11825;51.898;8.202;2023-03-13T05:42:35;7.30;;;2.00;;
14939;SDS011;11825;51.898;8.202;2023-03-13T05:47:43;2.17;;;1.97;;
14939;SDS011;11825;51.898;8.202;2023-03-13T05:52:51;3.30;;;1.63;;
14939;SDS011;11825;51.898;8.202;2023-03-13T05:58:06;6.77;;;2.40;;
14939;SDS011;11825;51.898;8.202;2023-03-13T06:03:24;2.87;;;1.83;;
14939;SDS011;11825;51.898;8.202;2023-03-13T06:08:30;3.67;;;2.33;;
14939;SDS011;11825;51.898;8.202;2023-03-13T06:13:40;3.07;;;2.60;;
14939;SDS011;11825;51.898;8.202;2023-03-13T06:19:02;3.03;;;2.70;;
14939;SDS011;11825;51.898;8.202;2023-03-13T06:24:08;3.90;;;3.37;;
14939;SDS011;11825;51.898;8.202;2023-03-13T06:29:26;4.90;;;3.43;;
14939;SDS011;11825;51.898;8.202;2023-03-13T06:34:51;4.63;;;4.23;;
14939;SDS011;11825;51.898;8.202;2023-03-13T06:40:03;4.03;;;3.03;;
14939;SDS011;11825;51.898;8.202;2023-03-13T06:45:14;5.80;;;3.93;;
14939;SDS011;11825;51.898;8.202;2023-03-13T06:50:27;5.07;;;3.73;;
14939;SDS011;11825;51.898;8.202;2023-03-13T06:55:37;3.67;;;3.37;;
14939;SDS011;11825;51.898;8.202;2023-03-13T07:00:43;3.70;;;3.07;;
14939;SDS011;11825;51.898;8.202;2023-03-13T07:06:00;4.07;;;3.40;;
14939;SDS011;11825;51.898;8.202;2023-03-13T07:11:11;6.20;;;4.07;;
14939;SDS011;11825;51.898;8.202;2023-03-13T07:16:30;5.83;;;4.87;;
14939;SDS011;11825;51.898;8.202;2023-03-13T07:21:43;6.10;;;3.60;;
14939;SDS011;11825;51.898;8.202;2023-03-13T07:26:53;3.70;;;3.37;;
14939;SDS011;11825;51.898;8.202;2023-03-13T07:32:10;6.63;;;3.40;;
14939;SDS011;11825;51.898;8.202;2023-03-13T07:37:36;6.63;;;3.13;;
14939;SDS011;11825;51.898;8.202;2023-03-13T07:43:06;3.43;;;3.17;;
14939;SDS011;11825;51.898;8.202;2023-03-13T07:48:17;3.07;;;2.60;;
14939;SDS011;11825;51.898;8.202;2023-03-13T07:53:36;4.03;;;3.23;;
14939;SDS011;11825;51.898;8.202;2023-03-13T07:58:43;6.03;;;2.67;;
14939;SDS011;11825;51.898;8.202;2023-03-13T08:04:01;2.87;;;2.67;;
14939;SDS011;11825;51.898;8.202;2023-03-13T08:09:06;3.77;;;2.43;;
14939;SDS011;11825;51.898;8.202;2023-03-13T08:14:11;3.17;;;2.57;;
14939;SDS011;11825;51.898;8.202;2023-03-13T08:19:27;2.03;;;1.90;;
14939;SDS011;11825;51.898;8.202;2023-03-13T08:24:40;3.43;;;2.53;;
14939;SDS011;11825;51.898;8.202;2023-03-13T08:30:00;5.63;;;2.47;;
14939;SDS011;11825;51.898;8.202;2023-03-13T08:35:34;2.63;;;2.27;;
14939;SDS011;11825;51.898;8.202;2023-03-13T08:40:40;4.07;;;2.10;;
14939;SDS011;11825;51.898;8.202;2023-03-13T08:45:56;3.23;;;2.03;;
14939;SDS011;11825;51.898;8.202;2023-03-13T08:51:04;2.70;;;2.30;;
14939;SDS011;11825;51.898;8.202;2023-03-13T08:56:14;3.27;;;2.50;;
14939;SDS011;11825;51.898;8.202;2023-03-13T09:01:27;3.77;;;1.77;;
14939;SDS011;11825;51.898;8.202;2023-03-13T09:06:34;3.53;;;2.10;;
14939;SDS011;11825;51.898;8.202;2023-03-13T09:11:49;4.33;;;2.00;;
14939;SDS011;11825;51.898;8.202;2023-03-13T09:17:04;3.43;;;2.40;;
14939;SDS011;11825;51.898;8.202;2023-03-13T09:22:11;6.60;;;3.10;;
14939;SDS011;11825;51.898;8.202;2023-03-13T09:27:16;7.77;;;2.67;;
14939;SDS011;11825;51.898;8.202;2023-03-13T09:32:32;6.50;;;3.27;;
14939;SDS011;11825;51.898;8.202;2023-03-13T09:37:57;2.83;;;1.87;;
14939;SDS011;11825;51.898;8.202;2023-03-13T09:43:04;4.07;;;2.47;;
14939;SDS011;11825;51.898;8.202;2023-03-13T09:53:38;5.53;;;3.03;;
14939;SDS011;11825;51.898;8.202;2023-03-13T09:59:36;4.90;;;2.67;;
14939;SDS011;11825;51.898;8.202;2023-03-13T10:11:15;3.63;;;2.20;;
14939;SDS011;11825;51.898;8.202;2023-03-13T10:16:00;2.13;;;2.00;;
14939;SDS011;11825;51.898;8.202;2023-03-13T10:21:17;3.90;;;2.17;;
14939;SDS011;11825;51.898;8.202;2023-03-13T10:26:26;5.00;;;2.33;;
14939;SDS011;11825;51.898;8.202;2023-03-13T10:31:33;3.70;;;2.40;;
14939;SDS011;11825;51.898;8.202;2023-03-13T10:37:00;5.03;;;2.67;;
14939;SDS011;11825;51.898;8.202;2023-03-13T10:47:59;5.67;;;2.60;;
14939;SDS011;11825;51.898;8.202;2023-03-13T10:58:50;2.67;;;1.87;;
14939;SDS011;11825;51.898;8.202;2023-03-13T11:04:00;3.03;;;1.97;;
14939;SDS011;11825;51.898;8.202;2023-03-13T11:15:49;4.27;;;2.43;;
14939;SDS011;11825;51.898;8.202;2023-03-13T11:21:01;2.90;;;2.07;;
14939;SDS011;11825;51.898;8.202;2023-03-13T11:26:22;2.20;;;1.77;;
14939;SDS011;11825;51.898;8.202;2023-03-13T11:32:09;2.63;;;1.80;;
14939;SDS011;11825;51.898;8.202;2023-03-13T11:37:30;4.33;;;1.97;;
14939;SDS011;11825;51.898;8.202;2023-03-13T12:05:08;11.10;;;7.77;;
14939;SDS011;11825;51.898;8.202;2023-03-13T12:15:33;3.00;;;1.50;;
14939;SDS011;11825;51.898;8.202;2023-03-13T12:20:43;1.60;;;1.20;;
14939;SDS011;11825;51.898;8.202;2023-03-13T12:26:09;1.10;;;1.00;;
14939;SDS011;11825;51.898;8.202;2023-03-13T12:31:27;2.13;;;1.07;;
14939;SDS011;11825;51.898;8.202;2023-03-13T12:37:08;0.77;;;0.70;;
14939;SDS011;11825;51.898;8.202;2023-03-13T12:58:52;1.10;;;1.00;;
14939;SDS011;11825;51.898;8.202;2023-03-13T13:09:22;1.77;;;1.20;;
14939;SDS011;11825;51.898;8.202;2023-03-13T13:19:54;1.23;;;0.93;;
14939;SDS011;11825;51.898;8.202;2023-03-13T13:24:59;0.53;;;0.53;;
14939;SDS011;11825;51.898;8.202;2023-03-13T13:30:28;0.67;;;0.60;;
14939;SDS011;11825;51.898;8.202;2023-03-13T13:35:33;3.73;;;1.30;;
14939;SDS011;11825;51.898;8.202;2023-03-13T13:46:29;0.50;;;0.50;;
14939;SDS011;11825;51.898;8.202;2023-03-13T13:51:41;2.07;;;0.80;;
14939;SDS011;11825;51.898;8.202;2023-03-13T13:56:59;1.60;;;0.80;;
14939;SDS011;11825;51.898;8.202;2023-03-13T14:02:49;0.50;;;0.50;;
14939;SDS011;11825;51.898;8.202;2023-03-13T14:08:13;3.07;;;1.10;;
14939;SDS011;11825;51.898;8.202;2023-03-13T14:14:06;0.80;;;0.80;;
14939;SDS011;11825;51.898;8.202;2023-03-13T14:24:39;1.90;;;0.77;;
14939;SDS011;11825;51.898;8.202;2023-03-13T14:30:06;1.63;;;0.60;;
14939;SDS011;11825;51.898;8.202;2023-03-13T14:35:25;2.13;;;0.83;;
14939;SDS011;11825;51.898;8.202;2023-03-13T14:40:41;2.30;;;0.77;;
14939;SDS011;11825;51.898;8.202;2023-03-13T14:45:53;2.03;;;1.00;;
14939;SDS011;11825;51.898;8.202;2023-03-13T14:51:07;0.83;;;0.83;;
14939;SDS011;11825;51.898;8.202;2023-03-13T14:56:29;0.87;;;0.87;;
14939;SDS011;11825;51.898;8.202;2023-03-13T15:01:44;1.00;;;1.00;;
14939;SDS011;11825;51.898;8.202;2023-03-13T15:07:07;3.23;;;2.50;;
14939;SDS011;11825;51.898;8.202;2023-03-13T15:12:13;1.23;;;1.07;;
14939;SDS011;11825;51.898;8.202;2023-03-13T15:17:33;4.23;;;1.30;;
14939;SDS011;11825;51.898;8.202;2023-03-13T15:22:44;2.13;;;1.20;;
14939;SDS011;11825;51.898;8.202;2023-03-13T15:28:04;0.80;;;0.80;;
14939;SDS011;11825;51.898;8.202;2023-03-13T15:33:17;4.87;;;1.00;;
14939;SDS011;11825;51.898;8.202;2023-03-13T15:38:34;1.93;;;1.20;;
14939;SDS011;11825;51.898;8.202;2023-03-13T15:43:40;0.97;;;0.97;;
14939;SDS011;11825;51.898;8.202;2023-03-13T15:48:46;4.33;;;0.90;;
14939;SDS011;11825;51.898;8.202;2023-03-13T15:53:51;1.83;;;1.33;;
14939;SDS011;11825;51.898;8.202;2023-03-13T15:59:13;1.00;;;0.97;;
14939;SDS011;11825;51.898;8.202;2023-03-13T16:04:20;1.27;;;1.17;;
14939;SDS011;11825;51.898;8.202;2023-03-13T16:09:44;1.53;;;1.43;;
14939;SDS011;11825;51.898;8.202;2023-03-13T16:15:02;1.43;;;1.33;;
14939;SDS011;11825;51.898;8.202;2023-03-13T16:20:18;1.80;;;1.40;;
14939;SDS011;11825;51.898;8.202;2023-03-13T16:25:30;1.33;;;1.23;;
14939;SDS011;11825;51.898;8.202;2023-03-13T16:30:37;2.10;;;1.10;;
14939;SDS011;11825;51.898;8.202;2023-03-13T16:35:45;1.23;;;1.13;;
14939;SDS011;11825;51.898;8.202;2023-03-13T16:40:51;4.30;;;1.33;;
14939;SDS011;11825;51.898;8.202;2023-03-13T16:46:08;1.20;;;1.10;;
14939;SDS011;11825;51.898;8.202;2023-03-13T16:51:19;1.77;;;1.27;;
14939;SDS011;11825;51.898;8.202;2023-03-13T16:56:34;4.60;;;2.00;;
14939;SDS011;11825;51.898;8.202;2023-03-13T17:01:44;1.87;;;1.60;;
14939;SDS011;11825;51.898;8.202;2023-03-13T17:12:37;3.13;;;1.03;;
14939;SDS011;11825;51.898;8.202;2023-03-13T17:30:28;1.10;;;1.07;;
14939;SDS011;11825;51.898;8.202;2023-03-13T17:36:01;2.97;;;1.57;;
14939;SDS011;11825;51.898;8.202;2023-03-13T17:47:01;2.43;;;1.20;;
14939;SDS011;11825;51.898;8.202;2023-03-13T17:52:08;4.07;;;1.63;;
14939;SDS011;11825;51.898;8.202;2023-03-13T18:22:34;2.37;;;1.73;;
14939;SDS011;11825;51.898;8.202;2023-03-13T18:27:42;3.07;;;1.53;;
14939;SDS011;11825;51.898;8.202;2023-03-13T18:32:44;2.40;;;1.57;;
14939;SDS011;11825;51.898;8.202;2023-03-13T18:38:11;3.27;;;1.63;;
14939;SDS011;11825;51.898;8.202;2023-03-13T18:43:32;2.30;;;1.27;;
14939;SDS011;11825;51.898;8.202;2023-03-13T18:48:46;1.63;;;1.53;;
14939;SDS011;11825;51.898;8.202;2023-03-13T18:53:54;5.17;;;1.60;;
14939;SDS011;11825;51.898;8.202;2023-03-13T18:59:18;7.67;;;1.77;;
14939;SDS011;11825;51.898;8.202;2023-03-13T19:05:07;4.47;;;2.00;;
14939;SDS011;11825;51.898;8.202;2023-03-13T19:22:31;4.07;;;2.00;;
14939;SDS011;11825;51.898;8.202;2023-03-13T19:40:18;5.50;;;4.13;;
14939;SDS011;11825;51.898;8.202;2023-03-13T19:52:08;3.73;;;2.30;;
14939;SDS011;11825;51.898;8.202;2023-03-13T20:03:53;5.07;;;3.03;;
14939;SDS011;11825;51.898;8.202;2023-03-13T20:09:10;2.50;;;1.90;;
14939;SDS011;11825;51.898;8.202;2023-03-13T20:14:19;4.13;;;1.77;;
14939;SDS011;11825;51.898;8.202;2023-03-13T20:19:46;3.53;;;2.27;;
14939;SDS011;11825;51.898;8.202;2023-03-13T20:24:51;1.67;;;1.57;;
14939;SDS011;11825;51.898;8.202;2023-03-13T20:30:01;5.67;;;2.07;;
14939;SDS011;11825;51.898;8.202;2023-03-13T20:35:05;5.03;;;1.83;;
14939;SDS011;11825;51.898;8.202;2023-03-13T20:40:54;3.77;;;2.60;;
14939;SDS011;11825;51.898;8.202;2023-03-13T20:46:01;5.50;;;2.30;;
14939;SDS011;11825;51.898;8.202;2023-03-13T20:51:16;2.80;;;2.43;;
14939;SDS011;11825;51.898;8.202;2023-03-13T20:56:47;7.83;;;2.63;;
14939;SDS011;11825;51.898;8.202;2023-03-13T21:14:41;2.63;;;1.90;;
14939;SDS011;11825;51.898;8.202;2023-03-13T21:26:52;2.23;;;1.93;;
14939;SDS011;11825;51.898;8.202;2023-03-13T21:32:07;5.00;;;2.13;;
14939;SDS011;11825;51.898;8.202;2023-03-13T21:37:21;3.23;;;2.20;;
14939;SDS011;11825;51.898;8.202;2023-03-13T21:42:26;8.90;;;2.23;;
14939;SDS011;11825;51.898;8.202;2023-03-13T21:48:27;4.13;;;2.53;;
14939;SDS011;11825;51.898;8.202;2023-03-13T21:53:38;3.13;;;2.30;;
14939;SDS011;11825;51.898;8.202;2023-03-13T21:58:48;5.03;;;1.90;;
14939;SDS011;11825;51.898;8.202;2023-03-13T22:03:50;7.77;;;2.53;;
14939;SDS011;11825;51.898;8.202;2023-03-13T22:08:58;2.93;;;1.93;;
14939;SDS011;11825;51.898;8.202;2023-03-13T22:14:06;7.40;;;2.37;;
14939;SDS011;11825;51.898;8.202;2023-03-13T22:19:31;3.17;;;2.20;;
14939;SDS011;11825;51.898;8.202;2023-03-13T22:24:46;10.17;;;3.27;;
14939;SDS011;11825;51.898;8.202;2023-03-13T22:29:48;5.03;;;2.30;;
14939;SDS011;11825;51.898;8.202;2023-03-13T22:53:58;2.43;;;1.60;;
14939;SDS011;11825;51.898;8.202;2023-03-13T23:05:35;1.67;;;1.57;;
14939;SDS011;11825;51.898;8.202;2023-03-13T23:11:16;4.33;;;1.80;;
14939;SDS011;11825;51.898;8.202;2023-03-13T23:22:03;4.13;;;2.00;;
14939;SDS011;11825;51.898;8.202;2023-03-13T23:28:03;3.67;;;1.30;;
14939;SDS011;11825;51.898;8.202;2023-03-13T23:33:32;2.37;;;1.57;;
14939;SDS011;11825;51.898;8.202;2023-03-13T23:39:27;3.07;;;1.93;;
14939;SDS011;11825;51.898;8.202;2023-03-13T23:50:10;3.13;;;1.37;;
14939;SDS011;11825;51.898;8.202;2023-03-13T23:55:31;4.10;;;1.53;;
